Thunderstorms From: 21-05-2018 15:00 Until: 22-05-2018 15:00 warning for: Thunderstorms Level: Yellow info button

Although rather usual in this region, locally or potentially dangerous phenomena are expected. (such as local winds, summer thunderstorms, rising streams or high waves) Be aware and pay attention to the latest weather updates, especially if you carry out activities exposed to weather or close to a stream or shoreline. 


Meteo18 Weather Cam more information Meteo18 Weather Cam


warning for Thunderstorms more information blitzortung!


Rain radar more information rain snow radar


Visit our other weather sites:

Template documentation
and downloads

And another site



Weather Underground History page Text

Daily Summary for July 5, 2017 Units:  English    Metric   Both
« Previous Day
Next Day »
Daily Weekly Monthly Yearly Custom
  High: Low: Average:
Temperature: TemperatureC °F 15.9 °F 25.3 °F
Dew Point: DewpointC °F 12.9 °F 15.3 °F
Humidity: Humidity % 30 % 58 %
Wind Speed: WindSpeedKMH mph 0.0 mph 2.9 mph
Wind Gust: WindSpeedGustKMH mph - -
Wind:- - SE
Pressure: PressurehPa in 1015.5 in -
Precipitation: 0.0 in    
Historical Graphs
 
 
Tabular Data for July 5, 2017
Time Temperature Dew Point Pressure Wind Wind Speed Wind Gust Humidity Rainfall Rate (Hourly)
TemperatureC °F DewpointC °F PressurehPa in Calm     Humidity % HourlyPrecipMM in
00:02 20.3 °F 15.3 °F 1018.8 in Calm     73 % 0.0 in
00:12 20.1 °F 15.3 °F 1018.5 in Calm     74 % 0.0 in
00:17 19.9 °F 15.1 °F 1018.8 in Calm     74 % 0.0 in
00:22 19.6 °F 15.3 °F 1018.8 in Calm     76 % 0.0 in
00:32 18.7 °F 15.2 °F 1018.8 in Calm     80 % 0.0 in
00:37 18.4 °F 15.1 °F 1018.8 in Calm     81 % 0.0 in
00:42 18.6 °F 15.3 °F 1018.8 in NNW 1.6 mph   81 % 0.0 in
00:47 19.0 °F 15.5 °F 1018.8 in Calm   3.2 mph 80 % 0.0 in
00:52 19.0 °F 15.3 °F 1018.8 in Calm   3.2 mph 79 % 0.0 in
00:57 18.9 °F 15.2 °F 1018.8 in Calm   3.2 mph 79 % 0.0 in
01:02 18.7 °F 15.2 °F 1018.8 in Calm   3.2 mph 80 % 0.0 in
01:07 18.6 °F 15.3 °F 1018.8 in WNW 1.6 mph 1.6 mph 81 % 0.0 in
01:12 18.6 °F 15.3 °F 1018.8 in Calm   1.6 mph 81 % 0.0 in
01:17 18.5 °F 15.2 °F 1018.5 in Calm   1.6 mph 81 % 0.0 in
01:22 18.4 °F 15.1 °F 1018.5 in NNE 3.2 mph 3.2 mph 81 % 0.0 in
01:32 18.4 °F 15.3 °F 1018.5 in NNW 3.2 mph 3.2 mph 82 % 0.0 in
01:37 18.5 °F 15.2 °F 1018.5 in WNW 1.6 mph 3.2 mph 81 % 0.0 in
01:42 18.5 °F 15.2 °F 1018.5 in NW 1.6 mph 3.2 mph 81 % 0.0 in
01:47 18.6 °F 15.3 °F 1018.5 in NW 1.6 mph 3.2 mph 81 % 0.0 in
01:52 18.4 °F 15.1 °F 1018.5 in NNW 1.6 mph 3.2 mph 81 % 0.0 in
02:02 18.1 °F 14.8 °F 1018.2 in Calm   3.2 mph 81 % 0.0 in
02:07 17.7 °F 14.8 °F 1018.2 in Calm   3.2 mph 83 % 0.0 in
02:12 17.5 °F 14.9 °F 1018.5 in Calm   3.2 mph 85 % 0.0 in
02:17 17.6 °F 14.7 °F 1018.5 in Calm   1.6 mph 83 % 0.0 in
02:22 17.7 °F 15.1 °F 1018.5 in Calm   3.2 mph 85 % 0.0 in
02:27 18.0 °F 15.1 °F 1018.5 in WNW 1.6 mph 3.2 mph 83 % 0.0 in
02:32 18.0 °F 14.9 °F 1018.5 in WNW 1.6 mph 3.2 mph 82 % 0.0 in
02:37 17.7 °F 14.8 °F 1018.5 in WNW 1.6 mph 1.6 mph 83 % 0.0 in
02:42 17.6 °F 14.7 °F 1018.5 in WNW 1.6 mph 3.2 mph 83 % 0.0 in
02:47 17.4 °F 14.9 °F 1018.5 in WNW 1.6 mph 3.2 mph 85 % 0.0 in
02:52 17.3 °F 14.6 °F 1018.5 in WNW 1.6 mph 3.2 mph 84 % 0.0 in
02:57 17.1 °F 14.6 °F 1018.5 in WNW 3.2 mph 3.2 mph 85 % 0.0 in
03:02 17.2 °F 14.7 °F 1018.5 in WNW 1.6 mph 3.2 mph 85 % 0.0 in
03:07 17.1 °F 14.6 °F 1018.2 in WNW 3.2 mph 3.2 mph 85 % 0.0 in
03:12 16.9 °F 14.5 °F 1018.2 in WNW 1.6 mph 3.2 mph 86 % 0.0 in
03:17 17.0 °F 14.5 °F 1018.5 in Calm   3.2 mph 85 % 0.0 in
03:22 17.2 °F 14.5 °F 1018.2 in Calm   3.2 mph 84 % 0.0 in
03:27 17.5 °F 14.4 °F 1018.2 in NW 1.6 mph 3.2 mph 82 % 0.0 in
03:32 17.6 °F 14.5 °F 1018.2 in NW 1.6 mph 4.8 mph 82 % 0.0 in
03:37 17.8 °F 14.5 °F 1018.2 in NNW 1.6 mph 4.8 mph 81 % 0.0 in
03:42 17.9 °F 14.4 °F 1018.2 in NNW 1.6 mph 4.8 mph 80 % 0.0 in
03:47 17.8 °F 14.3 °F 1018.2 in NNW 1.6 mph 3.2 mph 80 % 0.0 in
03:52 17.8 °F 14.5 °F 1017.8 in Calm   3.2 mph 81 % 0.0 in
03:57 17.8 °F 14.5 °F 1017.8 in North 1.6 mph 3.2 mph 81 % 0.0 in
04:02 17.8 °F 14.3 °F 1017.8 in North 1.6 mph 3.2 mph 80 % 0.0 in
04:07 17.8 °F 14.3 °F 1017.8 in Calm   3.2 mph 80 % 0.0 in
04:12 17.7 °F 14.2 °F 1017.8 in NNW 1.6 mph 3.2 mph 80 % 0.0 in
04:17 17.7 °F 14.2 °F 1017.8 in NW 1.6 mph 3.2 mph 80 % 0.0 in
04:22 17.5 °F 14.2 °F 1017.8 in Calm   1.6 mph 81 % 0.0 in
04:27 17.4 °F 14.3 °F 1017.8 in Calm   1.6 mph 82 % 0.0 in
04:32 17.3 °F 14.2 °F 1017.8 in North 1.6 mph 1.6 mph 82 % 0.0 in
04:37 17.2 °F 14.1 °F 1017.8 in NNW 1.6 mph 3.2 mph 82 % 0.0 in
04:42 17.1 °F 14.2 °F 1017.8 in NNE 1.6 mph 3.2 mph 83 % 0.0 in
04:47 17.0 °F 14.1 °F 1017.8 in North 1.6 mph 3.2 mph 83 % 0.0 in
04:52 16.9 °F 14.0 °F 1017.8 in Calm   3.2 mph 83 % 0.0 in
04:57 16.9 °F 14.0 °F 1017.5 in North 1.6 mph 3.2 mph 83 % 0.0 in
05:02 16.9 °F 14.0 °F 1017.5 in North 1.6 mph 3.2 mph 83 % 0.0 in
05:07 16.9 °F 14.0 °F 1017.5 in North 1.6 mph 3.2 mph 83 % 0.0 in
05:12 16.9 °F 14.0 °F 1017.5 in Calm   3.2 mph 83 % 0.0 in
05:17 16.8 °F 14.1 °F 1017.5 in Calm   3.2 mph 84 % 0.0 in
05:22 16.8 °F 14.1 °F 1017.5 in NNW 1.6 mph 3.2 mph 84 % 0.0 in
05:32 16.7 °F 14.0 °F 1017.5 in Calm   3.2 mph 84 % 0.0 in
05:37 16.7 °F 14.0 °F 1017.5 in Calm   3.2 mph 84 % 0.0 in
05:42 16.6 °F 13.9 °F 1017.5 in North 1.6 mph 3.2 mph 84 % 0.0 in
05:47 16.4 °F 13.9 °F 1017.5 in NNE 1.6 mph 3.2 mph 85 % 0.0 in
05:52 16.3 °F 13.8 °F 1017.5 in Calm   3.2 mph 85 % 0.0 in
05:57 16.2 °F 13.7 °F 1017.5 in North 3.2 mph 3.2 mph 85 % 0.0 in
06:02 16.0 °F 13.7 °F 1017.5 in NNW 1.6 mph 3.2 mph 86 % 0.0 in
06:07 15.9 °F 13.6 °F 1017.5 in NNW 1.6 mph 4.8 mph 86 % 0.0 in
06:12 15.9 °F 13.7 °F 1017.5 in NNW 1.6 mph 4.8 mph 87 % 0.0 in
06:17 16.1 °F 13.9 °F 1017.5 in NNW 1.6 mph 3.2 mph 87 % 0.0 in
06:22 16.1 °F 13.8 °F 1017.5 in North 1.6 mph 3.2 mph 86 % 0.0 in
06:32 15.9 °F 13.7 °F 1017.5 in North 1.6 mph 1.6 mph 87 % 0.0 in
06:37 16.0 °F 13.8 °F 1017.5 in Calm   1.6 mph 87 % 0.0 in
06:42 16.3 °F 14.1 °F 1017.5 in NNW 1.6 mph 3.2 mph 87 % 0.0 in
06:47 16.6 °F 14.2 °F 1017.5 in North 4.8 mph 4.8 mph 86 % 0.0 in
06:52 16.7 °F 14.2 °F 1017.5 in NNE 6.4 mph 8.0 mph 85 % 0.0 in
07:02 17.2 °F 14.3 °F 1017.8 in NNE 3.2 mph 8.0 mph 83 % 0.0 in
07:12 17.8 °F 14.7 °F 1017.8 in North 3.2 mph 4.8 mph 82 % 0.0 in
07:17 18.1 °F 15.0 °F 1017.8 in Calm   4.8 mph 82 % 0.0 in
07:22 18.4 °F 15.1 °F 1017.8 in North 1.6 mph 4.8 mph 81 % 0.0 in
07:27 18.7 °F 15.4 °F 1017.8 in North 1.6 mph 4.8 mph 81 % 0.0 in
07:37 19.1 °F 15.4 °F 1017.8 in North 3.2 mph 4.8 mph 79 % 0.0 in
07:42 19.2 °F 15.5 °F 1017.5 in NNE 1.6 mph 4.8 mph 79 % 0.0 in
07:52 19.7 °F 16.0 °F 1017.8 in Calm   3.2 mph 79 % 0.0 in
08:02 21.1 °F 16.3 °F 1017.5 in Calm   1.6 mph 74 % 0.0 in
08:12 21.1 °F 16.1 °F 1017.5 in ENE 3.2 mph 4.8 mph 73 % 0.0 in
08:17 21.2 °F 16.2 °F 1017.5 in NE 1.6 mph 6.4 mph 73 % 0.0 in
08:22 21.3 °F 16.0 °F 1017.8 in NNE 3.2 mph 8.0 mph 72 % 0.0 in
08:32 21.7 °F 16.2 °F 1017.8 in ENE 3.2 mph 8.0 mph 71 % 0.0 in
08:42 22.2 °F 16.5 °F 1017.8 in ENE 4.8 mph 9.7 mph 70 % 0.0 in
08:47 22.3 °F 15.9 °F 1017.8 in ENE 8.0 mph 9.7 mph 67 % 0.0 in
08:52 22.4 °F 15.7 °F 1017.8 in ENE 4.8 mph 11.3 mph 66 % 0.0 in
08:57 22.7 °F 16.0 °F 1017.8 in NE 4.8 mph 11.3 mph 66 % 0.0 in
09:02 22.8 °F 15.9 °F 1017.8 in NE 3.2 mph 11.3 mph 65 % 0.0 in
09:07 22.9 °F 15.7 °F 1017.8 in ENE 6.4 mph 9.7 mph 64 % 0.0 in
09:12 23.1 °F 15.9 °F 1017.8 in ENE 9.7 mph 9.7 mph 64 % 0.0 in
09:17 23.4 °F 15.4 °F 1017.8 in East 3.2 mph 9.7 mph 61 % 0.0 in
09:22 23.6 °F 15.6 °F 1017.8 in ENE 1.6 mph 9.7 mph 61 % 0.0 in
09:32 23.8 °F 15.6 °F 1017.8 in ENE 4.8 mph 9.7 mph 60 % 0.0 in
09:42 23.9 °F 15.4 °F 1017.8 in East 3.2 mph 14.5 mph 59 % 0.0 in
09:47 24.2 °F 15.7 °F 1017.8 in ENE 1.6 mph 14.5 mph 59 % 0.0 in
09:52 24.3 °F 16.0 °F 1017.8 in ENE 3.2 mph 14.5 mph 60 % 0.0 in
09:57 24.4 °F 16.1 °F 1017.8 in East 3.2 mph 11.3 mph 60 % 0.0 in
10:02 24.7 °F 16.1 °F 1017.8 in ESE 3.2 mph 11.3 mph 59 % 0.0 in
10:12 25.3 °F 15.9 °F 1017.8 in East 4.8 mph 9.7 mph 56 % 0.0 in
10:17 25.5 °F 16.1 °F 1017.8 in SE 3.2 mph 12.9 mph 56 % 0.0 in
10:22 25.6 °F 16.2 °F 1017.8 in SE 4.8 mph 12.9 mph 56 % 0.0 in
10:32 25.8 °F 16.4 °F 1017.8 in ENE 3.2 mph 12.9 mph 56 % 0.0 in
10:37 25.9 °F 16.2 °F 1017.8 in ENE 8.0 mph 12.9 mph 55 % 0.0 in
10:42 25.9 °F 15.9 °F 1017.8 in East 3.2 mph 12.9 mph 54 % 0.0 in
10:47 26.2 °F 16.2 °F 1017.8 in Calm   12.9 mph 54 % 0.0 in
10:52 26.4 °F 16.0 °F 1017.8 in East 6.4 mph 12.9 mph 53 % 0.0 in
10:57 26.6 °F 16.2 °F 1017.8 in ENE 3.2 mph 11.3 mph 53 % 0.0 in
11:02 26.6 °F 16.2 °F 1017.8 in NE 6.4 mph 11.3 mph 53 % 0.0 in
11:07 26.6 °F 16.2 °F 1017.8 in ENE 3.2 mph 12.9 mph 53 % 0.0 in
11:12 26.7 °F 15.7 °F 1017.8 in ENE 4.8 mph 14.5 mph 51 % 0.0 in
11:17 26.7 °F 16.0 °F 1017.8 in NE 4.8 mph 14.5 mph 52 % 0.0 in
11:22 26.9 °F 16.5 °F 1017.8 in East 6.4 mph 11.3 mph 53 % 0.0 in
11:27 27.2 °F 16.2 °F 1017.8 in ENE 3.2 mph 11.3 mph 51 % 0.0 in
11:32 27.5 °F 16.1 °F 1017.5 in SSW 1.6 mph 12.9 mph 50 % 0.0 in
11:37 27.7 °F 16.3 °F 1017.5 in ENE 8.0 mph 12.9 mph 50 % 0.0 in
11:42 27.6 °F 16.2 °F 1017.5 in SSE 3.2 mph 12.9 mph 50 % 0.0 in
11:47 27.7 °F 16.6 °F 1017.5 in ENE 4.8 mph 16.1 mph 51 % 0.0 in
11:52 27.9 °F 16.8 °F 1017.5 in ENE 9.7 mph 16.1 mph 51 % 0.0 in
11:57 28.3 °F 16.9 °F 1017.5 in ENE 3.2 mph 16.1 mph 50 % 0.0 in
12:02 28.4 °F 16.7 °F 1017.5 in ENE 4.8 mph 12.9 mph 49 % 0.0 in
12:07 28.4 °F 16.3 °F 1017.5 in ENE 4.8 mph 12.9 mph 48 % 0.0 in
12:12 28.5 °F 16.4 °F 1017.5 in NE 11.3 mph 14.5 mph 48 % 0.0 in
12:17 28.8 °F 15.7 °F 1017.5 in East 14.5 mph 14.5 mph 45 % 0.0 in
12:22 28.8 °F 16.0 °F 1017.5 in NE 9.7 mph 17.7 mph 46 % 0.0 in
12:27 29.0 °F 15.9 °F 1017.5 in ENE 9.7 mph 17.7 mph 45 % 0.0 in
12:32 29.1 °F 16.3 °F 1017.5 in NE 11.3 mph 17.7 mph 46 % 0.0 in
12:37 29.2 °F 16.4 °F 1017.2 in ENE 1.6 mph 16.1 mph 46 % 0.0 in
12:42 29.4 °F 15.5 °F 1017.5 in ENE 11.3 mph 22.5 mph 43 % 0.0 in
12:47 29.3 °F 15.4 °F 1017.2 in ENE 6.4 mph 22.5 mph 43 % 0.0 in
12:52 29.4 °F 15.5 °F 1017.2 in ENE 8.0 mph 22.5 mph 43 % 0.0 in
12:57 29.9 °F 15.6 °F 1017.2 in East 6.4 mph 20.9 mph 42 % 0.0 in
13:02 30.3 °F 15.6 °F 1017.2 in East 3.2 mph 20.9 mph 41 % 0.0 in
13:07 30.3 °F 15.2 °F 1017.2 in NE 3.2 mph 12.9 mph 40 % 0.0 in
13:12 30.2 °F 15.5 °F 1017.2 in NNE 6.4 mph 16.1 mph 41 % 0.0 in
13:17 30.6 °F 15.8 °F 1017.2 in ENE 3.2 mph 16.1 mph 41 % 0.0 in
13:22 30.6 °F 15.5 °F 1017.2 in East 19.3 mph 19.3 mph 40 % 0.0 in
13:27 30.7 °F 15.5 °F 1017.2 in East 11.3 mph 19.3 mph 40 % 0.0 in
13:32 30.2 °F 14.7 °F 1017.2 in NNE 6.4 mph 19.3 mph 39 % 0.0 in
13:37 30.4 °F 15.3 °F 1017.2 in ESE 1.6 mph 19.3 mph 40 % 0.0 in
13:42 30.7 °F 15.2 °F 1017.2 in ENE 8.0 mph 17.7 mph 39 % 0.0 in
13:47 30.8 °F 15.2 °F 1017.2 in ENE 9.7 mph 12.9 mph 39 % 0.0 in
13:52 30.9 °F 15.3 °F 1017.2 in East 1.6 mph 19.3 mph 39 % 0.0 in
13:57 30.7 °F 14.8 °F 1017.2 in East 3.2 mph 19.3 mph 38 % 0.0 in
14:02 31.1 °F 15.1 °F 1016.8 in SE 4.8 mph 19.3 mph 38 % 0.0 in
14:07 31.2 °F 15.2 °F 1016.8 in East 6.4 mph 14.5 mph 38 % 0.0 in
14:12 31.2 °F 15.2 °F 1016.8 in NE 4.8 mph 14.5 mph 38 % 0.0 in
14:22 31.8 °F 15.7 °F 1016.8 in ENE 6.4 mph 14.5 mph 38 % 0.0 in
14:27 31.9 °F 15.8 °F 1016.5 in SE 3.2 mph 12.9 mph 38 % 0.0 in
14:32 32.1 °F 15.6 °F 1016.8 in East 6.4 mph 16.1 mph 37 % 0.0 in
14:37 32.1 °F 15.6 °F 1016.8 in NE 3.2 mph 19.3 mph 37 % 0.0 in
14:42 32.6 °F 15.1 °F 1016.5 in SSE 8.0 mph 19.3 mph 35 % 0.0 in
14:47 32.6 °F 15.1 °F 1016.5 in East 1.6 mph 14.5 mph 35 % 0.0 in
14:52 32.7 °F 14.8 °F 1016.5 in ESE 4.8 mph 14.5 mph 34 % 0.0 in
14:57 32.8 °F 14.9 °F 1016.5 in Calm   14.5 mph 34 % 0.0 in
15:02 32.9 °F 15.0 °F 1016.5 in ESE 3.2 mph 11.3 mph 34 % 0.0 in
15:12 33.1 °F 14.7 °F 1016.1 in ESE 3.2 mph 9.7 mph 33 % 0.0 in
15:22 32.7 °F 12.9 °F 1016.1 in East 3.2 mph 12.9 mph 30 % 0.0 in
15:27 32.6 °F 13.3 °F 1016.1 in NE 4.8 mph 14.5 mph 31 % 0.0 in
15:32 32.4 °F 13.6 °F 1016.1 in ESE 4.8 mph 14.5 mph 32 % 0.0 in
15:37 32.4 °F 13.6 °F 1016.1 in NNE 4.8 mph 16.1 mph 32 % 0.0 in
15:42 32.7 °F 13.8 °F 1016.1 in SE 6.4 mph 16.1 mph 32 % 0.0 in
15:47 32.8 °F 14.4 °F 1016.1 in ENE 3.2 mph 16.1 mph 33 % 0.0 in
15:52 33.0 °F 15.5 °F 1016.1 in East 6.4 mph 12.9 mph 35 % 0.0 in
15:57 33.1 °F 14.7 °F 1016.1 in SE 8.0 mph 12.9 mph 33 % 0.0 in
16:02 33.3 °F 14.4 °F 1016.1 in Calm   12.9 mph 32 % 0.0 in
16:12 33.3 °F 14.8 °F 1015.8 in East 3.2 mph 14.5 mph 33 % 0.0 in
16:17 33.1 °F 15.1 °F 1015.8 in ENE 6.4 mph 14.5 mph 34 % 0.0 in
16:22 33.1 °F 15.6 °F 1015.8 in ESE 1.6 mph 14.5 mph 35 % 0.0 in
16:27 33.1 °F 15.1 °F 1015.8 in ENE 6.4 mph 17.7 mph 34 % 0.0 in
16:32 33.1 °F 15.1 °F 1015.8 in SE 1.6 mph 17.7 mph 34 % 0.0 in
16:37 33.5 °F 15.5 °F 1015.8 in SSW 1.6 mph 17.7 mph 34 % 0.0 in
16:42 33.5 °F 14.5 °F 1015.8 in SSW 6.4 mph 11.3 mph 32 % 0.0 in
16:47 33.5 °F 15.9 °F 1015.8 in SW 3.2 mph 14.5 mph 35 % 0.0 in
16:52 33.8 °F 15.7 °F 1015.8 in East 3.2 mph 14.5 mph 34 % 0.0 in
16:57 33.8 °F 15.3 °F 1015.8 in SE 4.8 mph 17.7 mph 33 % 0.0 in
17:02 34.0 °F 15.9 °F 1015.8 in South 3.2 mph 17.7 mph 34 % 0.0 in
17:12 33.7 °F 15.7 °F 1015.8 in SSW 3.2 mph 14.5 mph 34 % 0.0 in
17:17 33.9 °F 15.8 °F 1015.5 in SW 6.4 mph 11.3 mph 34 % 0.0 in
17:22 33.8 °F 16.2 °F 1015.5 in East 1.6 mph 12.9 mph 35 % 0.0 in
17:27 34.2 °F 16.5 °F 1015.5 in ESE 4.8 mph 12.9 mph 35 % 0.0 in
17:32 34.0 °F 15.0 °F 1015.5 in SW 4.8 mph 14.5 mph 32 % 0.0 in
17:37 34.0 °F 15.9 °F 1015.5 in East 8.0 mph 14.5 mph 34 % 0.0 in
17:42 34.0 °F 15.0 °F 1015.5 in ENE 3.2 mph 14.5 mph 32 % 0.0 in
17:47 34.0 °F 15.5 °F 1015.5 in SSW 4.8 mph 12.9 mph 33 % 0.0 in
17:52 33.9 °F 16.7 °F 1015.5 in SSE 6.4 mph 12.9 mph 36 % 0.0 in
17:57 34.0 °F 15.0 °F 1015.5 in ENE 3.2 mph 12.9 mph 32 % 0.0 in
18:02 33.8 °F 15.3 °F 1015.5 in ENE 4.8 mph 11.3 mph 33 % 0.0 in
18:07 33.7 °F 14.7 °F 1015.5 in WSW 3.2 mph 12.9 mph 32 % 0.0 in
18:12 33.5 °F 15.0 °F 1015.5 in SSW 3.2 mph 12.9 mph 33 % 0.0 in
18:17 33.6 °F 15.6 °F 1015.5 in South 1.6 mph 12.9 mph 34 % 0.0 in
18:22 33.6 °F 15.6 °F 1015.5 in SSW 6.4 mph 9.7 mph 34 % 0.0 in
18:27 33.2 °F 15.7 °F 1015.5 in SE 1.6 mph 9.7 mph 35 % 0.0 in
18:32 33.2 °F 15.7 °F 1015.5 in Calm   11.3 mph 35 % 0.0 in
18:42 33.6 °F 15.1 °F 1015.5 in Calm   11.3 mph 33 % 0.0 in
18:47 33.8 °F 14.8 °F 1015.5 in East 3.2 mph 9.7 mph 32 % 0.0 in
18:52 33.4 °F 14.0 °F 1015.5 in SSE 1.6 mph 9.7 mph 31 % 0.0 in
18:57 33.4 °F 14.5 °F 1015.5 in SE 1.6 mph 9.7 mph 32 % 0.0 in
19:02 33.2 °F 14.3 °F 1015.5 in Calm   9.7 mph 32 % 0.0 in
19:07 33.1 °F 15.6 °F 1015.5 in SSE 3.2 mph 8.0 mph 35 % 0.0 in
19:12 33.0 °F 14.6 °F 1015.5 in ENE 1.6 mph 8.0 mph 33 % 0.0 in
19:17 32.9 °F 14.5 °F 1015.5 in ENE 6.4 mph 9.7 mph 33 % 0.0 in
19:22 32.7 °F 14.3 °F 1015.5 in East 3.2 mph 9.7 mph 33 % 0.0 in
19:27 32.5 °F 14.6 °F 1015.5 in East 1.6 mph 9.7 mph 34 % 0.0 in
19:32 32.3 °F 14.4 °F 1015.5 in ENE 3.2 mph 9.7 mph 34 % 0.0 in
19:37 32.2 °F 14.8 °F 1015.5 in East 6.4 mph 9.7 mph 35 % 0.0 in
19:42 32.3 °F 14.9 °F 1015.5 in ENE 3.2 mph 9.7 mph 35 % 0.0 in
19:47 32.4 °F 15.0 °F 1015.5 in Calm   9.7 mph 35 % 0.0 in
19:52 32.6 °F 15.1 °F 1015.5 in Calm   9.7 mph 35 % 0.0 in
19:57 32.5 °F 15.5 °F 1015.5 in ESE 4.8 mph 9.7 mph 36 % 0.0 in
20:02 32.3 °F 15.8 °F 1015.5 in East 6.4 mph 8.0 mph 37 % 0.0 in
20:12 31.7 °F 16.0 °F 1015.5 in ENE 4.8 mph 9.7 mph 39 % 0.0 in
20:17 31.3 °F 16.1 °F 1015.8 in East 1.6 mph 9.7 mph 40 % 0.0 in
20:22 30.9 °F 16.1 °F 1015.8 in East 4.8 mph 8.0 mph 41 % 0.0 in
20:27 30.7 °F 16.3 °F 1015.8 in ESE 1.6 mph 8.0 mph 42 % 0.0 in
20:32 30.6 °F 16.6 °F 1015.8 in East 4.8 mph 8.0 mph 43 % 0.0 in
20:37 30.6 °F 16.6 °F 1015.8 in East 3.2 mph 8.0 mph 43 % 0.0 in
20:42 30.6 °F 16.6 °F 1015.8 in East 3.2 mph 6.4 mph 43 % 0.0 in
20:47 30.6 °F 16.2 °F 1015.8 in East 4.8 mph 9.7 mph 42 % 0.0 in
20:52 30.7 °F 16.3 °F 1015.8 in Calm   9.7 mph 42 % 0.0 in
21:02 30.6 °F 16.6 °F 1015.8 in Calm   4.8 mph 43 % 0.0 in
21:07 30.5 °F 16.9 °F 1015.8 in Calm   4.8 mph 44 % 0.0 in
21:12 30.3 °F 16.7 °F 1015.8 in Calm   3.2 mph 44 % 0.0 in
21:17 30.1 °F 16.9 °F 1015.8 in Calm     45 % 0.0 in
21:22 29.9 °F 17.0 °F 1015.8 in Calm     46 % 0.0 in
21:32 29.7 °F 17.2 °F 1015.8 in Calm     47 % 0.0 in
21:37 29.3 °F 17.2 °F 1015.8 in Calm     48 % 0.0 in
21:47 28.3 °F 17.2 °F 1015.8 in Calm     51 % 0.0 in
21:52 27.7 °F 17.2 °F 1015.8 in Calm     53 % 0.0 in
21:57 27.2 °F 16.8 °F 1015.8 in Calm     53 % 0.0 in
22:02 26.9 °F 16.8 °F 1015.8 in Calm     54 % 0.0 in
22:07 26.7 °F 16.6 °F 1015.8 in Calm     54 % 0.0 in
22:12 26.4 °F 17.2 °F 1016.1 in Calm     57 % 0.0 in
22:17 25.8 °F 16.9 °F 1016.1 in Calm     58 % 0.0 in
22:22 25.4 °F 17.1 °F 1016.1 in Calm     60 % 0.0 in
22:32 24.9 °F 16.9 °F 1016.1 in Calm     61 % 0.0 in
22:37 24.7 °F 16.9 °F 1016.1 in Calm     62 % 0.0 in
22:42 24.4 °F 16.6 °F 1016.1 in Calm     62 % 0.0 in
22:47 24.3 °F 16.6 °F 1016.1 in Calm     62 % 0.0 in
22:52 24.3 °F 16.6 °F 1016.1 in Calm     62 % 0.0 in
22:57 24.3 °F 16.6 °F 1016.1 in Calm     62 % 0.0 in
23:02 24.3 °F 16.6 °F 1016.1 in Calm     62 % 0.0 in
23:07 24.2 °F 17.0 °F 1016.1 in Calm     64 % 0.0 in
23:12 23.8 °F 16.6 °F 1016.5 in Calm     64 % 0.0 in
23:17 23.4 °F 16.4 °F 1016.5 in Calm     65 % 0.0 in
23:22 23.2 °F 16.5 °F 1016.1 in Calm     66 % 0.0 in
23:27 23.0 °F 16.3 °F 1016.5 in Calm     66 % 0.0 in
23:32 23.2 °F 16.5 °F 1016.5 in NW 1.6 mph   66 % 0.0 in
23:37 23.3 °F 16.6 °F 1016.5 in NNW 1.6 mph 3.2 mph 66 % 0.0 in
23:42 23.3 °F 16.6 °F 1016.5 in Calm   3.2 mph 66 % 0.0 in
23:47 23.2 °F 16.5 °F 1016.5 in Calm   3.2 mph 66 % 0.0 in
23:52 22.9 °F 16.7 °F 1016.5 in North 1.6 mph 3.2 mph 68 % 0.0 in
23:57 23.1 °F 16.6 °F 1016.5 in North 1.6 mph 3.2 mph 67 % 0.0 in
Meteo18
Compliments of Weather Underground - 4 mb

Script developed by  Jim McMurry - jmcmurry@mwt.net Adapted for the template by  Wim van der Kuil - Leuven-Template.eu

You find our weather info also at:

European Weather Network

Weather Underground

Equipment we use:

Weather-station
Davis Vue

Weather-program
Meteobridge

Weather-server
Raspberry PI 2 B+

Provider
1 and 1

Davis Vue

Meteobridge

Raspberry PI 2 B+

1 and 1